sensor_id;sensor_type;location;lat;lon;timestamp;pressure;altitude;pressure_sealevel;temperature;humidity
52935;BME280;38802;50.198;19.796;2023-11-18T00:00:22;96080.02;;;0.82;100.00
52935;BME280;38802;50.198;19.796;2023-11-18T00:03:10;96078.24;;;0.80;100.00
52935;BME280;38802;50.198;19.796;2023-11-18T00:05:38;96083.64;;;0.78;100.00
52935;BME280;38802;50.198;19.796;2023-11-18T00:08:06;96085.48;;;0.75;100.00
52935;BME280;38802;50.198;19.796;2023-11-18T00:10:34;96079.90;;;0.73;100.00
52935;BME280;38802;50.198;19.796;2023-11-18T00:13:03;96077.31;;;0.74;100.00
52935;BME280;38802;50.198;19.796;2023-11-18T00:15:31;96081.48;;;0.73;100.00
52935;BME280;38802;50.198;19.796;2023-11-18T00:18:02;96081.19;;;0.75;100.00
52935;BME280;38802;50.198;19.796;2023-11-18T00:20:31;96081.60;;;0.74;100.00
52935;BME280;38802;50.198;19.796;2023-11-18T00:22:59;96089.42;;;0.75;100.00
52935;BME280;38802;50.198;19.796;2023-11-18T00:25:27;96085.27;;;0.76;100.00
52935;BME280;38802;50.198;19.796;2023-11-18T00:27:55;96087.80;;;0.76;100.00
52935;BME280;38802;50.198;19.796;2023-11-18T00:30:23;96089.27;;;0.78;100.00
52935;BME280;38802;50.198;19.796;2023-11-18T00:32:51;96091.45;;;0.79;100.00
52935;BME280;38802;50.198;19.796;2023-11-18T00:35:20;96091.85;;;0.81;100.00
52935;BME280;38802;50.198;19.796;2023-11-18T00:37:48;96093.34;;;0.82;100.00
52935;BME280;38802;50.198;19.796;2023-11-18T00:40:16;96101.29;;;0.80;100.00
52935;BME280;38802;50.198;19.796;2023-11-18T00:42:47;96103.08;;;0.79;100.00
52935;BME280;38802;50.198;19.796;2023-11-18T00:45:15;96103.91;;;0.79;100.00
52935;BME280;38802;50.198;19.796;2023-11-18T00:47:43;96109.32;;;0.77;100.00
52935;BME280;38802;50.198;19.796;2023-11-18T00:50:11;96114.97;;;0.77;100.00
52935;BME280;38802;50.198;19.796;2023-11-18T00:52:39;96113.31;;;0.75;100.00
52935;BME280;38802;50.198;19.796;2023-11-18T00:55:09;96110.48;;;0.77;100.00
52935;BME280;38802;50.198;19.796;2023-11-18T00:57:39;96111.94;;;0.76;100.00
52935;BME280;38802;50.198;19.796;2023-11-18T01:00:13;96111.39;;;0.76;100.00
52935;BME280;38802;50.198;19.796;2023-11-18T01:02:44;96109.30;;;0.77;100.00
52935;BME280;38802;50.198;19.796;2023-11-18T01:05:15;96111.50;;;0.78;100.00
52935;BME280;38802;50.198;19.796;2023-11-18T01:07:43;96109.83;;;0.77;100.00
52935;BME280;38802;50.198;19.796;2023-11-18T01:10:11;96112.16;;;0.78;100.00
52935;BME280;38802;50.198;19.796;2023-11-18T01:12:41;96113.27;;;0.80;100.00
52935;BME280;38802;50.198;19.796;2023-11-18T01:15:13;96113.59;;;0.81;100.00
52935;BME280;38802;50.198;19.796;2023-11-18T01:17:42;96114.40;;;0.82;100.00
52935;BME280;38802;50.198;19.796;2023-11-18T01:20:10;96112.89;;;0.85;100.00
52935;BME280;38802;50.198;19.796;2023-11-18T01:22:39;96113.63;;;0.88;100.00
52935;BME280;38802;50.198;19.796;2023-11-18T01:25:10;96112.52;;;0.89;100.00
52935;BME280;38802;50.198;19.796;2023-11-18T01:27:38;96108.33;;;0.91;100.00
52935;BME280;38802;50.198;19.796;2023-11-18T01:30:07;96111.54;;;0.92;100.00
52935;BME280;38802;50.198;19.796;2023-11-18T01:32:37;96113.79;;;0.92;100.00
52935;BME280;38802;50.198;19.796;2023-11-18T01:35:06;96114.11;;;0.88;100.00
52935;BME280;38802;50.198;19.796;2023-11-18T01:37:36;96112.23;;;0.88;100.00
52935;BME280;38802;50.198;19.796;2023-11-18T01:40:04;96111.58;;;0.88;100.00
52935;BME280;38802;50.198;19.796;2023-11-18T01:42:33;96115.25;;;0.85;100.00
52935;BME280;38802;50.198;19.796;2023-11-18T01:45:02;96113.19;;;0.85;100.00
52935;BME280;38802;50.198;19.796;2023-11-18T01:47:32;96111.60;;;0.87;100.00
52935;BME280;38802;50.198;19.796;2023-11-18T01:50:01;96110.77;;;0.86;100.00
52935;BME280;38802;50.198;19.796;2023-11-18T01:52:30;96108.20;;;0.86;100.00
52935;BME280;38802;50.198;19.796;2023-11-18T01:54:58;96108.34;;;0.87;100.00
52935;BME280;38802;50.198;19.796;2023-11-18T01:57:27;96109.02;;;0.88;100.00
52935;BME280;38802;50.198;19.796;2023-11-18T01:59:55;96113.55;;;0.85;100.00
52935;BME280;38802;50.198;19.796;2023-11-18T02:02:23;96114.83;;;0.88;100.00
52935;BME280;38802;50.198;19.796;2023-11-18T02:04:53;96111.38;;;0.88;100.00
52935;BME280;38802;50.198;19.796;2023-11-18T02:07:21;96111.01;;;0.92;100.00
52935;BME280;38802;50.198;19.796;2023-11-18T02:09:50;96106.09;;;0.92;100.00
52935;BME280;38802;50.198;19.796;2023-11-18T02:12:21;96103.92;;;0.94;100.00
52935;BME280;38802;50.198;19.796;2023-11-18T02:14:51;96103.04;;;0.95;100.00
52935;BME280;38802;50.198;19.796;2023-11-18T02:17:22;96102.30;;;0.96;100.00
52935;BME280;38802;50.198;19.796;2023-11-18T02:19:55;96105.84;;;0.97;100.00
52935;BME280;38802;50.198;19.796;2023-11-18T02:22:24;96107.87;;;0.98;100.00
52935;BME280;38802;50.198;19.796;2023-11-18T02:24:53;96112.80;;;0.98;100.00
52935;BME280;38802;50.198;19.796;2023-11-18T02:27:21;96114.09;;;1.00;100.00
52935;BME280;38802;50.198;19.796;2023-11-18T02:29:52;96113.83;;;1.02;100.00
52935;BME280;38802;50.198;19.796;2023-11-18T02:32:25;96114.55;;;1.04;100.00
52935;BME280;38802;50.198;19.796;2023-11-18T02:35:18;96118.31;;;1.05;100.00
52935;BME280;38802;50.198;19.796;2023-11-18T02:37:44;96120.23;;;1.08;100.00
52935;BME280;38802;50.198;19.796;2023-11-18T02:40:15;96120.17;;;1.09;100.00
52935;BME280;38802;50.198;19.796;2023-11-18T02:42:45;96120.83;;;1.09;100.00
52935;BME280;38802;50.198;19.796;2023-11-18T02:45:13;96120.73;;;1.11;100.00
52935;BME280;38802;50.198;19.796;2023-11-18T02:47:45;96124.23;;;1.14;100.00
52935;BME280;38802;50.198;19.796;2023-11-18T02:50:14;96125.05;;;1.14;100.00
52935;BME280;38802;50.198;19.796;2023-11-18T02:52:44;96129.16;;;1.14;100.00
52935;BME280;38802;50.198;19.796;2023-11-18T02:55:13;96130.20;;;1.14;100.00
52935;BME280;38802;50.198;19.796;2023-11-18T02:57:41;96127.84;;;1.16;100.00
52935;BME280;38802;50.198;19.796;2023-11-18T03:00:09;96129.23;;;1.16;100.00
52935;BME280;38802;50.198;19.796;2023-11-18T03:02:45;96130.77;;;1.16;100.00
52935;BME280;38802;50.198;19.796;2023-11-18T03:05:15;96132.11;;;1.17;100.00
52935;BME280;38802;50.198;19.796;2023-11-18T03:07:44;96138.08;;;1.17;100.00
52935;BME280;38802;50.198;19.796;2023-11-18T03:10:18;96131.13;;;1.19;100.00
52935;BME280;38802;50.198;19.796;2023-11-18T03:12:49;96130.06;;;1.20;100.00
52935;BME280;38802;50.198;19.796;2023-11-18T03:15:18;96133.75;;;1.22;100.00
52935;BME280;38802;50.198;19.796;2023-11-18T03:17:47;96137.20;;;1.21;100.00
52935;BME280;38802;50.198;19.796;2023-11-18T03:20:18;96141.20;;;1.20;100.00
52935;BME280;38802;50.198;19.796;2023-11-18T03:22:47;96136.68;;;1.21;100.00
52935;BME280;38802;50.198;19.796;2023-11-18T03:25:16;96140.30;;;1.21;100.00
52935;BME280;38802;50.198;19.796;2023-11-18T03:27:44;96143.57;;;1.20;100.00
52935;BME280;38802;50.198;19.796;2023-11-18T03:30:12;96148.92;;;1.23;100.00
52935;BME280;38802;50.198;19.796;2023-11-18T03:32:40;96144.77;;;1.24;100.00
52935;BME280;38802;50.198;19.796;2023-11-18T03:35:08;96151.98;;;1.23;100.00
52935;BME280;38802;50.198;19.796;2023-11-18T03:37:38;96157.46;;;1.23;100.00
52935;BME280;38802;50.198;19.796;2023-11-18T03:40:09;96158.11;;;1.24;100.00
52935;BME280;38802;50.198;19.796;2023-11-18T03:42:38;96155.98;;;1.26;100.00
52935;BME280;38802;50.198;19.796;2023-11-18T03:45:06;96157.34;;;1.26;100.00
52935;BME280;38802;50.198;19.796;2023-11-18T03:47:34;96159.46;;;1.24;100.00
52935;BME280;38802;50.198;19.796;2023-11-18T03:50:03;96161.21;;;1.24;100.00
52935;BME280;38802;50.198;19.796;2023-11-18T03:52:31;96163.52;;;1.26;100.00
52935;BME280;38802;50.198;19.796;2023-11-18T03:54:59;96165.42;;;1.25;100.00
52935;BME280;38802;50.198;19.796;2023-11-18T03:57:27;96165.58;;;1.26;100.00
52935;BME280;38802;50.198;19.796;2023-11-18T03:59:55;96166.92;;;1.26;100.00
52935;BME280;38802;50.198;19.796;2023-11-18T04:02:23;96170.01;;;1.26;100.00
52935;BME280;38802;50.198;19.796;2023-11-18T04:04:52;96168.73;;;1.28;100.00
52935;BME280;38802;50.198;19.796;2023-11-18T04:07:21;96166.49;;;1.28;100.00
52935;BME280;38802;50.198;19.796;2023-11-18T04:09:49;96168.20;;;1.28;100.00
52935;BME280;38802;50.198;19.796;2023-11-18T04:12:18;96166.46;;;1.29;100.00
52935;BME280;38802;50.198;19.796;2023-11-18T04:14:47;96165.55;;;1.30;100.00
52935;BME280;38802;50.198;19.796;2023-11-18T04:17:14;96169.02;;;1.33;100.00
52935;BME280;38802;50.198;19.796;2023-11-18T04:19:43;96168.21;;;1.32;100.00
52935;BME280;38802;50.198;19.796;2023-11-18T04:22:11;96170.39;;;1.33;100.00
52935;BME280;38802;50.198;19.796;2023-11-18T04:24:39;96167.81;;;1.33;100.00
52935;BME280;38802;50.198;19.796;2023-11-18T04:27:07;96172.25;;;1.34;100.00
52935;BME280;38802;50.198;19.796;2023-11-18T04:29:35;96170.20;;;1.34;100.00
52935;BME280;38802;50.198;19.796;2023-11-18T04:32:04;96170.04;;;1.33;100.00
52935;BME280;38802;50.198;19.796;2023-11-18T04:34:32;96167.22;;;1.32;100.00
52935;BME280;38802;50.198;19.796;2023-11-18T04:37:00;96167.21;;;1.32;100.00
52935;BME280;38802;50.198;19.796;2023-11-18T04:39:31;96172.73;;;1.30;100.00
52935;BME280;38802;50.198;19.796;2023-11-18T04:41:59;96173.94;;;1.30;100.00
52935;BME280;38802;50.198;19.796;2023-11-18T04:44:29;96177.23;;;1.29;100.00
52935;BME280;38802;50.198;19.796;2023-11-18T04:46:59;96181.40;;;1.28;100.00
52935;BME280;38802;50.198;19.796;2023-11-18T04:49:29;96181.64;;;1.26;100.00
52935;BME280;38802;50.198;19.796;2023-11-18T04:51:57;96181.56;;;1.24;100.00
52935;BME280;38802;50.198;19.796;2023-11-18T04:54:26;96180.91;;;1.23;100.00
52935;BME280;38802;50.198;19.796;2023-11-18T04:56:54;96180.67;;;1.21;100.00
52935;BME280;38802;50.198;19.796;2023-11-18T04:59:22;96183.05;;;1.21;100.00
52935;BME280;38802;50.198;19.796;2023-11-18T05:01:50;96177.21;;;1.22;100.00
52935;BME280;38802;50.198;19.796;2023-11-18T05:04:21;96182.98;;;1.19;100.00
52935;BME280;38802;50.198;19.796;2023-11-18T05:06:49;96182.25;;;1.17;100.00
52935;BME280;38802;50.198;19.796;2023-11-18T05:09:17;96184.33;;;1.16;100.00
52935;BME280;38802;50.198;19.796;2023-11-18T05:11:46;96182.66;;;1.19;100.00
52935;BME280;38802;50.198;19.796;2023-11-18T05:14:14;96182.51;;;1.18;100.00
52935;BME280;38802;50.198;19.796;2023-11-18T05:16:44;96181.66;;;1.18;100.00
52935;BME280;38802;50.198;19.796;2023-11-18T05:19:12;96183.54;;;1.18;100.00
52935;BME280;38802;50.198;19.796;2023-11-18T05:21:42;96184.04;;;1.19;100.00
52935;BME280;38802;50.198;19.796;2023-11-18T05:24:10;96185.02;;;1.19;100.00
52935;BME280;38802;50.198;19.796;2023-11-18T05:26:38;96187.22;;;1.20;100.00
52935;BME280;38802;50.198;19.796;2023-11-18T05:29:07;96192.51;;;1.20;100.00
52935;BME280;38802;50.198;19.796;2023-11-18T05:31:35;96192.09;;;1.22;100.00
52935;BME280;38802;50.198;19.796;2023-11-18T05:34:05;96194.16;;;1.26;100.00
52935;BME280;38802;50.198;19.796;2023-11-18T05:36:33;96202.01;;;1.26;100.00
52935;BME280;38802;50.198;19.796;2023-11-18T05:39:05;96201.63;;;1.27;100.00
52935;BME280;38802;50.198;19.796;2023-11-18T05:41:35;96205.71;;;1.27;100.00
52935;BME280;38802;50.198;19.796;2023-11-18T05:44:03;96206.85;;;1.25;100.00
52935;BME280;38802;50.198;19.796;2023-11-18T05:46:31;96205.19;;;1.24;100.00
52935;BME280;38802;50.198;19.796;2023-11-18T05:49:04;96210.08;;;1.25;100.00
52935;BME280;38802;50.198;19.796;2023-11-18T05:51:35;96212.89;;;1.24;100.00
52935;BME280;38802;50.198;19.796;2023-11-18T05:54:03;96214.27;;;1.24;100.00
52935;BME280;38802;50.198;19.796;2023-11-18T05:56:31;96212.92;;;1.23;100.00
52935;BME280;38802;50.198;19.796;2023-11-18T05:58:59;96214.60;;;1.24;100.00
52935;BME280;38802;50.198;19.796;2023-11-18T06:01:30;96216.79;;;1.25;100.00
52935;BME280;38802;50.198;19.796;2023-11-18T06:03:59;96221.10;;;1.24;100.00
52935;BME280;38802;50.198;19.796;2023-11-18T06:06:28;96223.52;;;1.20;100.00
52935;BME280;38802;50.198;19.796;2023-11-18T06:08:56;96226.50;;;1.14;100.00
52935;BME280;38802;50.198;19.796;2023-11-18T06:11:32;96224.17;;;1.09;100.00
52935;BME280;38802;50.198;19.796;2023-11-18T06:14:00;96225.33;;;1.03;100.00
52935;BME280;38802;50.198;19.796;2023-11-18T06:16:28;96227.77;;;0.98;100.00
52935;BME280;38802;50.198;19.796;2023-11-18T06:18:57;96233.92;;;0.94;100.00
52935;BME280;38802;50.198;19.796;2023-11-18T06:21:26;96241.36;;;0.92;100.00
52935;BME280;38802;50.198;19.796;2023-11-18T06:23:59;96240.88;;;0.87;100.00
52935;BME280;38802;50.198;19.796;2023-11-18T06:26:27;96244.11;;;0.84;100.00
52935;BME280;38802;50.198;19.796;2023-11-18T06:28:56;96250.78;;;0.80;100.00
52935;BME280;38802;50.198;19.796;2023-11-18T06:31:24;96257.21;;;0.77;100.00
52935;BME280;38802;50.198;19.796;2023-11-18T06:33:53;96257.89;;;0.74;100.00
52935;BME280;38802;50.198;19.796;2023-11-18T06:36:21;96260.79;;;0.70;100.00
52935;BME280;38802;50.198;19.796;2023-11-18T06:38:51;96262.18;;;0.65;100.00
52935;BME280;38802;50.198;19.796;2023-11-18T06:41:20;96266.20;;;0.63;100.00
52935;BME280;38802;50.198;19.796;2023-11-18T06:43:52;96271.80;;;0.60;100.00
52935;BME280;38802;50.198;19.796;2023-11-18T06:46:26;96272.98;;;0.56;100.00
52935;BME280;38802;50.198;19.796;2023-11-18T06:48:57;96269.59;;;0.56;100.00
52935;BME280;38802;50.198;19.796;2023-11-18T06:51:26;96273.53;;;0.56;100.00
52935;BME280;38802;50.198;19.796;2023-11-18T06:53:55;96272.61;;;0.57;100.00
52935;BME280;38802;50.198;19.796;2023-11-18T06:56:24;96275.77;;;0.59;100.00
52935;BME280;38802;50.198;19.796;2023-11-18T06:58:55;96275.05;;;0.60;100.00
52935;BME280;38802;50.198;19.796;2023-11-18T07:01:23;96274.43;;;0.63;100.00
52935;BME280;38802;50.198;19.796;2023-11-18T07:03:51;96278.41;;;0.66;100.00
52935;BME280;38802;50.198;19.796;2023-11-18T07:06:21;96276.44;;;0.68;100.00
52935;BME280;38802;50.198;19.796;2023-11-18T07:08:54;96286.73;;;0.67;100.00
52935;BME280;38802;50.198;19.796;2023-11-18T07:11:24;96290.58;;;0.69;100.00
52935;BME280;38802;50.198;19.796;2023-11-18T07:13:52;96299.52;;;0.72;100.00
52935;BME280;38802;50.198;19.796;2023-11-18T07:16:25;96301.24;;;0.75;100.00
52935;BME280;38802;50.198;19.796;2023-11-18T07:18:53;96303.74;;;0.77;100.00
52935;BME280;38802;50.198;19.796;2023-11-18T07:21:21;96302.77;;;0.79;100.00
52935;BME280;38802;50.198;19.796;2023-11-18T07:23:50;96302.95;;;0.83;100.00
52935;BME280;38802;50.198;19.796;2023-11-18T07:26:18;96304.98;;;0.88;100.00
52935;BME280;38802;50.198;19.796;2023-11-18T07:28:46;96304.66;;;0.88;100.00
52935;BME280;38802;50.198;19.796;2023-11-18T07:31:14;96306.30;;;0.85;100.00
52935;BME280;38802;50.198;19.796;2023-11-18T07:33:42;96304.69;;;0.83;100.00
52935;BME280;38802;50.198;19.796;2023-11-18T07:36:12;96301.84;;;0.81;100.00
52935;BME280;38802;50.198;19.796;2023-11-18T07:38:40;96304.46;;;0.80;100.00
52935;BME280;38802;50.198;19.796;2023-11-18T07:41:08;96306.56;;;0.79;100.00
52935;BME280;38802;50.198;19.796;2023-11-18T07:43:37;96299.53;;;0.79;100.00
52935;BME280;38802;50.198;19.796;2023-11-18T07:46:05;96302.02;;;0.81;100.00
52935;BME280;38802;50.198;19.796;2023-11-18T07:48:36;96295.77;;;0.83;100.00
52935;BME280;38802;50.198;19.796;2023-11-18T07:51:04;96298.85;;;0.83;100.00
52935;BME280;38802;50.198;19.796;2023-11-18T07:53:32;96298.50;;;0.84;100.00
52935;BME280;38802;50.198;19.796;2023-11-18T07:56:01;96296.41;;;0.84;100.00
52935;BME280;38802;50.198;19.796;2023-11-18T07:58:29;96297.00;;;0.87;100.00
52935;BME280;38802;50.198;19.796;2023-11-18T08:00:59;96295.52;;;0.90;100.00
52935;BME280;38802;50.198;19.796;2023-11-18T08:03:28;96296.09;;;0.92;100.00
52935;BME280;38802;50.198;19.796;2023-11-18T08:05:56;96295.29;;;0.95;100.00
52935;BME280;38802;50.198;19.796;2023-11-18T08:08:24;96297.88;;;0.99;100.00
52935;BME280;38802;50.198;19.796;2023-11-18T08:10:53;96301.27;;;0.99;100.00
52935;BME280;38802;50.198;19.796;2023-11-18T08:13:23;96300.43;;;1.02;100.00
52935;BME280;38802;50.198;19.796;2023-11-18T08:15:51;96302.08;;;1.08;100.00
52935;BME280;38802;50.198;19.796;2023-11-18T08:18:20;96301.15;;;1.13;100.00
52935;BME280;38802;50.198;19.796;2023-11-18T08:20:49;96306.47;;;1.17;100.00
52935;BME280;38802;50.198;19.796;2023-11-18T08:23:17;96309.86;;;1.21;100.00
52935;BME280;38802;50.198;19.796;2023-11-18T08:25:47;96310.95;;;1.24;100.00
52935;BME280;38802;50.198;19.796;2023-11-18T08:28:15;96314.61;;;1.26;100.00
52935;BME280;38802;50.198;19.796;2023-11-18T08:30:44;96316.95;;;1.27;100.00
52935;BME280;38802;50.198;19.796;2023-11-18T08:33:12;96317.34;;;1.26;100.00
52935;BME280;38802;50.198;19.796;2023-11-18T08:35:40;96323.87;;;1.26;100.00
52935;BME280;38802;50.198;19.796;2023-11-18T08:38:10;96321.00;;;1.21;100.00
52935;BME280;38802;50.198;19.796;2023-11-18T08:40:40;96323.04;;;1.17;100.00
52935;BME280;38802;50.198;19.796;2023-11-18T08:43:10;96329.98;;;1.15;100.00
52935;BME280;38802;50.198;19.796;2023-11-18T08:45:39;96331.38;;;1.11;100.00
52935;BME280;38802;50.198;19.796;2023-11-18T08:48:09;96332.71;;;1.12;100.00
52935;BME280;38802;50.198;19.796;2023-11-18T08:50:38;96340.31;;;1.10;100.00
52935;BME280;38802;50.198;19.796;2023-11-18T08:54:36;96344.80;;;1.09;100.00
52935;BME280;38802;50.198;19.796;2023-11-18T08:57:05;96348.84;;;1.07;100.00
52935;BME280;38802;50.198;19.796;2023-11-18T08:59:51;96361.10;;;1.04;100.00
52935;BME280;38802;50.198;19.796;2023-11-18T09:02:20;96372.39;;;1.00;100.00
52935;BME280;38802;50.198;19.796;2023-11-18T09:04:52;96376.23;;;0.99;100.00
52935;BME280;38802;50.198;19.796;2023-11-18T09:07:23;96378.57;;;0.96;100.00
52935;BME280;38802;50.198;19.796;2023-11-18T09:09:52;96386.66;;;0.90;100.00
52935;BME280;38802;50.198;19.796;2023-11-18T09:12:21;96388.17;;;0.86;100.00
52935;BME280;38802;50.198;19.796;2023-11-18T09:14:49;96392.05;;;0.80;100.00
52935;BME280;38802;50.198;19.796;2023-11-18T09:17:20;96395.27;;;0.76;100.00
52935;BME280;38802;50.198;19.796;2023-11-18T09:19:50;96399.78;;;0.71;100.00
52935;BME280;38802;50.198;19.796;2023-11-18T09:22:41;96401.42;;;0.63;100.00
52935;BME280;38802;50.198;19.796;2023-11-18T09:25:09;96407.95;;;0.50;100.00
52935;BME280;38802;50.198;19.796;2023-11-18T09:27:38;96413.91;;;0.42;100.00
52935;BME280;38802;50.198;19.796;2023-11-18T09:30:07;96417.29;;;0.34;100.00
52935;BME280;38802;50.198;19.796;2023-11-18T09:32:41;96424.10;;;0.30;100.00
52935;BME280;38802;50.198;19.796;2023-11-18T09:35:10;96421.33;;;0.22;100.00
52935;BME280;38802;50.198;19.796;2023-11-18T09:37:40;96423.25;;;0.17;100.00
52935;BME280;38802;50.198;19.796;2023-11-18T09:40:10;96426.33;;;0.17;100.00
52935;BME280;38802;50.198;19.796;2023-11-18T09:42:41;96424.84;;;0.11;100.00
52935;BME280;38802;50.198;19.796;2023-11-18T09:45:11;96425.13;;;0.08;100.00
52935;BME280;38802;50.198;19.796;2023-11-18T09:47:42;96423.34;;;0.06;100.00
52935;BME280;38802;50.198;19.796;2023-11-18T09:50:10;96422.31;;;0.06;100.00
52935;BME280;38802;50.198;19.796;2023-11-18T09:52:42;96420.91;;;0.07;100.00
52935;BME280;38802;50.198;19.796;2023-11-18T09:55:15;96425.86;;;0.07;100.00
52935;BME280;38802;50.198;19.796;2023-11-18T09:57:49;96429.33;;;0.06;100.00
52935;BME280;38802;50.198;19.796;2023-11-18T10:00:25;96433.94;;;0.06;100.00
52935;BME280;38802;50.198;19.796;2023-11-18T10:02:54;96441.25;;;0.06;100.00
52935;BME280;38802;50.198;19.796;2023-11-18T10:05:29;96440.50;;;0.04;100.00
52935;BME280;38802;50.198;19.796;2023-11-18T10:07:58;96439.71;;;0.07;100.00
52935;BME280;38802;50.198;19.796;2023-11-18T10:10:26;96442.11;;;0.11;100.00
52935;BME280;38802;50.198;19.796;2023-11-18T10:13:05;96438.34;;;0.16;100.00
52935;BME280;38802;50.198;19.796;2023-11-18T10:15:47;96439.94;;;0.10;100.00
52935;BME280;38802;50.198;19.796;2023-11-18T10:18:21;96447.20;;;0.03;100.00
52935;BME280;38802;50.198;19.796;2023-11-18T10:20:51;96449.36;;;-0.01;100.00
52935;BME280;38802;50.198;19.796;2023-11-18T10:23:21;96448.30;;;0.01;100.00
52935;BME280;38802;50.198;19.796;2023-11-18T10:25:50;96451.64;;;0.03;100.00
52935;BME280;38802;50.198;19.796;2023-11-18T10:28:27;96456.66;;;0.01;100.00
52935;BME280;38802;50.198;19.796;2023-11-18T10:30:56;96461.45;;;0.01;100.00
52935;BME280;38802;50.198;19.796;2023-11-18T10:33:43;96462.65;;;-0.05;100.00
52935;BME280;38802;50.198;19.796;2023-11-18T10:36:18;96468.63;;;-0.09;100.00
52935;BME280;38802;50.198;19.796;2023-11-18T10:38:50;96472.35;;;-0.13;100.00
52935;BME280;38802;50.198;19.796;2023-11-18T10:41:19;96470.33;;;-0.14;100.00
52935;BME280;38802;50.198;19.796;2023-11-18T10:43:47;96475.38;;;-0.12;100.00
52935;BME280;38802;50.198;19.796;2023-11-18T10:46:18;96477.82;;;-0.09;100.00
52935;BME280;38802;50.198;19.796;2023-11-18T10:48:49;96482.95;;;-0.04;100.00
52935;BME280;38802;50.198;19.796;2023-11-18T10:51:18;96487.32;;;-0.07;100.00
52935;BME280;38802;50.198;19.796;2023-11-18T10:53:54;96488.33;;;-0.11;100.00
52935;BME280;38802;50.198;19.796;2023-11-18T10:56:32;96488.64;;;-0.15;100.00
52935;BME280;38802;50.198;19.796;2023-11-18T10:59:04;96491.09;;;-0.17;100.00
52935;BME280;38802;50.198;19.796;2023-11-18T11:01:36;96499.54;;;-0.18;100.00
52935;BME280;38802;50.198;19.796;2023-11-18T11:04:11;96498.50;;;-0.23;100.00
52935;BME280;38802;50.198;19.796;2023-11-18T11:06:43;96498.27;;;-0.26;100.00
52935;BME280;38802;50.198;19.796;2023-11-18T11:09:21;96504.86;;;-0.24;100.00
52935;BME280;38802;50.198;19.796;2023-11-18T11:11:57;96507.50;;;-0.21;100.00
52935;BME280;38802;50.198;19.796;2023-11-18T11:14:33;96509.48;;;-0.20;100.00
52935;BME280;38802;50.198;19.796;2023-11-18T11:17:07;96503.21;;;-0.21;100.00
52935;BME280;38802;50.198;19.796;2023-11-18T11:19:50;96504.16;;;-0.19;100.00
52935;BME280;38802;50.198;19.796;2023-11-18T11:22:26;96506.41;;;-0.20;100.00
52935;BME280;38802;50.198;19.796;2023-11-18T11:27:33;96512.20;;;-0.15;100.00
52935;BME280;38802;50.198;19.796;2023-11-18T11:32:51;96519.08;;;-0.16;100.00
52935;BME280;38802;50.198;19.796;2023-11-18T11:35:23;96523.61;;;-0.18;100.00
52935;BME280;38802;50.198;19.796;2023-11-18T11:37:52;96529.30;;;-0.15;100.00
52935;BME280;38802;50.198;19.796;2023-11-18T11:40:22;96533.97;;;-0.12;100.00
52935;BME280;38802;50.198;19.796;2023-11-18T11:42:50;96533.71;;;-0.14;100.00
52935;BME280;38802;50.198;19.796;2023-11-18T11:45:24;96540.40;;;-0.20;100.00
52935;BME280;38802;50.198;19.796;2023-11-18T11:47:57;96545.33;;;-0.24;100.00
52935;BME280;38802;50.198;19.796;2023-11-18T11:53:35;96544.57;;;-0.27;100.00
52935;BME280;38802;50.198;19.796;2023-11-18T11:56:13;96550.33;;;-0.25;100.00
52935;BME280;38802;50.198;19.796;2023-11-18T11:58:49;96557.79;;;-0.24;100.00
52935;BME280;38802;50.198;19.796;2023-11-18T12:03:54;96567.27;;;-0.22;100.00
52935;BME280;38802;50.198;19.796;2023-11-18T12:06:26;96569.00;;;-0.27;100.00
52935;BME280;38802;50.198;19.796;2023-11-18T12:08:56;96565.98;;;-0.29;100.00
52935;BME280;38802;50.198;19.796;2023-11-18T12:11:24;96564.79;;;-0.29;100.00
52935;BME280;38802;50.198;19.796;2023-11-18T12:17:07;96570.03;;;-0.43;100.00
52935;BME280;38802;50.198;19.796;2023-11-18T12:19:36;96567.12;;;-0.42;100.00
52935;BME280;38802;50.198;19.796;2023-11-18T12:22:16;96569.17;;;-0.43;100.00
52935;BME280;38802;50.198;19.796;2023-11-18T12:33:05;96580.05;;;-0.41;100.00
52935;BME280;38802;50.198;19.796;2023-11-18T12:41:03;96601.58;;;-0.32;100.00
52935;BME280;38802;50.198;19.796;2023-11-18T12:48:43;96606.35;;;-0.36;100.00
52935;BME280;38802;50.198;19.796;2023-11-18T12:51:11;96607.25;;;-0.43;100.00
52935;BME280;38802;50.198;19.796;2023-11-18T12:53:47;96608.70;;;-0.46;100.00
52935;BME280;38802;50.198;19.796;2023-11-18T12:56:17;96611.38;;;-0.50;100.00
52935;BME280;38802;50.198;19.796;2023-11-18T12:58:46;96615.32;;;-0.50;100.00
52935;BME280;38802;50.198;19.796;2023-11-18T13:01:15;96619.42;;;-0.51;100.00
52935;BME280;38802;50.198;19.796;2023-11-18T13:03:44;96624.70;;;-0.50;100.00
52935;BME280;38802;50.198;19.796;2023-11-18T13:06:13;96632.89;;;-0.50;100.00
52935;BME280;38802;50.198;19.796;2023-11-18T13:08:42;96632.88;;;-0.50;100.00
52935;BME280;38802;50.198;19.796;2023-11-18T13:11:10;96636.80;;;-0.50;100.00
52935;BME280;38802;50.198;19.796;2023-11-18T13:13:46;96638.84;;;-0.49;100.00
52935;BME280;38802;50.198;19.796;2023-11-18T13:16:14;96646.74;;;-0.51;100.00
52935;BME280;38802;50.198;19.796;2023-11-18T13:18:46;96639.80;;;-0.47;100.00
52935;BME280;38802;50.198;19.796;2023-11-18T13:21:20;96637.80;;;-0.49;100.00
52935;BME280;38802;50.198;19.796;2023-11-18T13:23:52;96635.17;;;-0.47;100.00
52935;BME280;38802;50.198;19.796;2023-11-18T13:26:21;96632.50;;;-0.49;100.00
52935;BME280;38802;50.198;19.796;2023-11-18T13:28:49;96638.92;;;-0.51;100.00
52935;BME280;38802;50.198;19.796;2023-11-18T13:31:17;96642.15;;;-0.56;100.00
52935;BME280;38802;50.198;19.796;2023-11-18T13:33:48;96652.39;;;-0.57;100.00
52935;BME280;38802;50.198;19.796;2023-11-18T13:36:17;96652.13;;;-0.59;100.00